Time;durP1;ratioP1;P1;durP2;ratioP2;P2;SDS_P1;SDS_P2;PMS_P1;PMS_P2;Temp;Humidity;BMP_temperature;BMP_pressure;BME280_temperature;BME280_humidity;BME280_pressure;Samples;Min_cycle;Max_cycle;Signal;HPM_P1;HPM_P2
2023/02/03 00:04:10;;;;;;;7.10;3.10;;;;;;;3.63;64.68;99516.30;233942;1193;139212;-71
2023/02/03 00:09:14;;;;;;;6.70;3.30;;;;;;;3.61;64.56;99518.98;233392;1193;138247;-69
2023/02/03 00:14:17;;;;;;;5.50;3.10;;;;;;;3.62;64.20;99519.99;235243;1193;138332;-69
2023/02/03 00:19:21;;;;;;;5.70;2.90;;;;;;;3.63;63.35;99515.77;234026;1193;237763;-72
2023/02/03 00:24:25;;;;;;;5.50;2.60;;;;;;;3.64;63.07;99521.73;231357;1196;138780;-71
2023/02/03 00:29:28;;;;;;;5.80;2.60;;;;;;;3.64;62.52;99538.90;229343;1198;138371;-71
2023/02/03 00:34:31;;;;;;;5.00;2.50;;;;;;;3.63;61.98;99545.58;229590;1193;138248;-71
2023/02/03 00:39:36;;;;;;;5.80;3.00;;;;;;;3.61;61.97;99548.98;231432;1193;138924;-71
2023/02/03 00:44:39;;;;;;;5.00;3.00;;;;;;;3.61;61.88;99556.69;229873;1195;138840;-71
2023/02/03 00:49:43;;;;;;;4.90;2.70;;;;;;;3.61;61.19;99559.66;230669;1198;138971;-71
2023/02/03 00:54:46;;;;;;;3.70;2.00;;;;;;;3.59;60.81;99561.30;229312;1197;138428;-72
2023/02/03 00:59:49;;;;;;;4.10;2.30;;;;;;;3.53;60.17;99560.21;230468;1196;138958;-71
2023/02/03 01:04:53;;;;;;;4.00;1.70;;;;;;;3.52;59.55;99568.67;229656;1193;138307;-69
2023/02/03 01:09:56;;;;;;;3.40;1.20;;;;;;;3.51;58.94;99571.14;230152;1193;138439;-71
2023/02/03 01:15:00;;;;;;;1.70;1.00;;;;;;;3.48;58.08;99567.18;230706;1198;138862;-71
2023/02/03 01:20:04;;;;;;;1.30;0.80;;;;;;;3.45;57.78;99563.23;231414;1193;138699;-70
2023/02/03 01:25:08;;;;;;;1.80;1.10;;;;;;;3.48;57.02;99574.73;231120;1198;139372;-71
2023/02/03 01:30:13;;;;;;;1.30;0.80;;;;;;;3.42;56.68;99571.02;230029;1193;138793;-69
2023/02/03 01:35:16;;;;;;;1.90;1.10;;;;;;;3.45;56.71;99570.96;230349;1198;139246;-72
2023/02/03 01:40:20;;;;;;;2.90;1.40;;;;;;;3.45;56.76;99570.92;234371;1193;138391;-70
2023/02/03 01:45:23;;;;;;;2.30;1.30;;;;;;;3.46;56.75;99573.88;235344;1193;139156;-71
2023/02/03 01:50:32;;;;;;;3.60;1.70;;;;;;;3.47;57.68;99577.92;233179;1197;139022;-72
2023/02/03 01:55:43;;;;;;;4.70;2.30;;;;;;;3.49;58.85;99571.90;234864;1195;138998;-72
2023/02/03 02:00:48;;;;;;;6.00;3.40;;;;;;;3.47;59.93;99569.66;235285;1193;138908;-71
2023/02/03 02:06:04;;;;;;;7.50;4.00;;;;;;;3.49;60.84;99564.70;232395;1196;139111;-71
2023/02/03 02:11:08;;;;;;;5.70;3.20;;;;;;;3.50;61.06;99557.47;230974;1193;138749;-71
2023/02/03 02:16:37;;;;;;;6.60;3.40;;;;;;;3.55;60.97;99549.10;230210;1198;139257;-71
2023/02/03 02:21:52;;;;;;;6.50;3.00;;;;;;;3.59;60.70;99545.52;228694;1199;138162;-71
2023/02/03 02:26:58;;;;;;;4.10;2.30;;;;;;;3.54;60.61;99540.36;231905;1198;138167;-70
2023/02/03 02:32:20;;;;;;;5.60;2.30;;;;;;;3.48;60.10;99541.91;231571;1193;138487;-71
2023/02/03 02:37:36;;;;;;;4.80;2.70;;;;;;;3.49;59.86;99541.91;235435;1198;237249;-70
2023/02/03 02:42:59;;;;;;;7.70;3.10;;;;;;;3.50;59.93;99545.22;232091;1198;138566;-70
2023/02/03 02:48:15;;;;;;;8.30;4.20;;;;;;;3.45;60.23;99552.37;230622;1195;138921;-71
2023/02/03 02:53:23;;;;;;;8.60;4.30;;;;;;;3.46;60.89;99557.40;230416;1193;138363;-70
2023/02/03 02:58:30;;;;;;;10.70;5.20;;;;;;;3.47;60.73;99556.52;233758;1193;138577;-70
2023/02/03 03:03:34;;;;;;;9.80;5.00;;;;;;;3.43;60.81;99550.30;232688;1198;138670;-72
2023/02/03 03:08:49;;;;;;;11.00;5.00;;;;;;;3.40;60.63;99542.66;232293;1198;138702;-73
2023/02/03 03:13:54;;;;;;;8.50;4.60;;;;;;;3.36;60.22;99528.73;229000;1193;138901;-72
2023/02/03 03:18:58;;;;;;;;;;;;;;;3.21;60.37;99513.48;230994;1197;138507;-70
2023/02/03 03:24:07;;;;;;;7.80;5.10;;;;;;;3.14;60.66;99499.27;229963;1199;124933;-71
2023/02/03 03:29:16;;;;;;;9.10;5.00;;;;;;;3.11;60.70;99501.65;229982;1199;138450;-71
2023/02/03 03:34:20;;;;;;;11.60;5.10;;;;;;;3.01;60.61;99515.02;229405;1193;138609;-70
2023/02/03 03:39:59;;;;;;;9.90;5.40;;;;;;;2.97;61.03;99535.09;230319;1198;138614;-71
2023/02/03 03:45:31;;;;;;;9.40;5.90;;;;;;;2.94;61.24;99543.05;229630;1199;138621;-70
2023/02/03 03:50:55;;;;;;;9.60;5.10;;;;;;;2.93;60.91;99537.84;229552;1198;138521;-72
2023/02/03 03:56:01;;;;;;;8.50;5.30;;;;;;;2.90;60.79;99542.09;229736;1195;138345;-69
2023/02/03 04:01:07;;;;;;;11.00;5.30;;;;;;;2.79;61.20;99531.84;231863;1193;138727;-70
2023/02/03 04:06:12;;;;;;;9.00;4.80;;;;;;;2.68;61.21;99512.63;231359;1193;139244;-69
2023/02/03 04:12:00;;;;;;;10.70;4.70;;;;;;;2.60;61.40;99503.52;230066;1199;139315;-72
2023/02/03 04:16:39;;;;;;;9.00;4.30;;;;;;;2.54;61.39;99497.17;228779;1199;138754;-71
2023/02/03 04:21:42;;;;;;;9.70;4.40;;;;;;;2.57;61.48;99493.26;228765;1200;138397;-70
2023/02/03 04:26:46;;;;;;;10.10;4.40;;;;;;;2.59;61.20;99493.22;229073;1210;139171;-70
2023/02/03 04:31:49;;;;;;;10.90;4.50;;;;;;;2.62;61.41;99490.52;230804;1199;138725;-70
2023/02/03 04:36:53;;;;;;;8.10;3.90;;;;;;;2.58;61.13;99492.19;230199;1197;139035;-71
2023/02/03 04:41:56;;;;;;;9.40;4.70;;;;;;;2.50;61.21;99499.18;231554;1193;138794;-70
2023/02/03 04:46:59;;;;;;;10.70;4.60;;;;;;;2.47;61.30;99500.12;230626;1197;139017;-71
2023/02/03 04:52:03;;;;;;;9.10;5.20;;;;;;;2.45;61.42;99495.80;229569;1198;138881;-70
2023/02/03 04:57:07;;;;;;;9.20;5.50;;;;;;;2.44;61.41;99482.85;230033;1198;138559;-70
2023/02/03 05:02:10;;;;;;;14.20;6.50;;;;;;;2.47;61.58;99486.14;229261;1199;138409;-71
2023/02/03 05:07:14;;;;;;;9.50;5.60;;;;;;;2.38;61.27;99479.67;230489;1198;139403;-71
2023/02/03 05:12:17;;;;;;;10.40;5.40;;;;;;;2.34;61.25;99477.65;231554;1196;138588;-70
2023/02/03 05:17:20;;;;;;;11.80;5.60;;;;;;;2.31;61.22;99475.27;229570;1199;140066;-69
2023/02/03 05:22:24;;;;;;;11.70;6.40;;;;;;;2.27;61.08;99470.62;230256;1197;140423;-71
2023/02/03 05:27:27;;;;;;;9.90;5.60;;;;;;;2.27;61.00;99466.95;231345;1193;138803;-70
2023/02/03 05:32:30;;;;;;;10.80;5.90;;;;;;;2.21;61.15;99463.75;229294;1199;139005;-70
2023/02/03 05:37:34;;;;;;;11.00;6.20;;;;;;;2.19;61.50;99455.58;229367;1199;138633;-70
2023/02/03 05:42:37;;;;;;;10.10;5.90;;;;;;;2.20;61.43;99444.87;229777;1199;138926;-70
2023/02/03 05:47:41;;;;;;;8.40;6.00;;;;;;;2.19;61.70;99436.67;230546;1198;139242;-70
2023/02/03 05:52:44;;;;;;;9.70;5.90;;;;;;;2.19;61.61;99439.99;231032;1193;139790;-70
2023/02/03 05:57:47;;;;;;;9.60;5.90;;;;;;;2.21;61.65;99438.70;233012;1193;138994;-69
2023/02/03 06:02:53;;;;;;;11.30;6.40;;;;;;;2.25;61.41;99432.50;234792;1197;138423;-71
2023/02/03 06:07:57;;;;;;;12.80;6.40;;;;;;;2.25;61.58;99427.08;235450;1196;138480;-69
2023/02/03 06:13:10;;;;;;;11.60;6.20;;;;;;;2.21;61.79;99422.79;232108;1196;139224;-71
2023/02/03 06:18:14;;;;;;;11.40;6.70;;;;;;;2.22;61.97;99410.52;233334;1193;138716;-71
2023/02/03 06:23:18;;;;;;;12.40;7.30;;;;;;;2.21;61.67;99396.54;229528;1199;138623;-71
2023/02/03 06:28:21;;;;;;;12.50;7.40;;;;;;;2.23;61.89;99385.80;229833;1196;138910;-71
2023/02/03 06:33:24;;;;;;;10.80;6.40;;;;;;;2.23;62.08;99381.95;230128;1196;139230;-71
2023/02/03 06:38:28;;;;;;;12.30;6.90;;;;;;;2.21;62.17;99374.83;231861;1193;138859;-71
2023/02/03 06:43:31;;;;;;;12.00;6.00;;;;;;;2.23;62.01;99367.77;229181;1199;138689;-68
2023/02/03 06:48:35;;;;;;;10.30;6.40;;;;;;;2.14;62.07;99371.67;230268;1199;138850;-68
2023/02/03 06:53:38;;;;;;;14.00;7.10;;;;;;;2.16;62.15;99362.88;228658;1199;138825;-69
2023/02/03 06:58:41;;;;;;;11.60;6.30;;;;;;;2.20;62.01;99348.27;230779;1193;139638;-69
2023/02/03 07:03:45;;;;;;;10.30;5.90;;;;;;;2.23;61.79;99352.20;235414;1196;138563;-70
2023/02/03 07:08:49;;;;;;;10.30;6.50;;;;;;;2.25;61.59;99347.95;234894;1193;139409;-69
2023/02/03 07:13:53;;;;;;;14.50;6.30;;;;;;;2.30;61.37;99345.75;232524;1193;138606;-72
2023/02/03 07:18:57;;;;;;;14.70;6.60;;;;;;;2.34;61.17;99335.31;229799;1199;138179;-72
2023/02/03 07:24:01;;;;;;;12.40;6.30;;;;;;;2.38;61.11;99332.41;229077;1193;138611;-71
2023/02/03 07:29:05;;;;;;;14.30;6.40;;;;;;;2.42;60.81;99322.87;230435;1196;138529;-73
2023/02/03 07:34:09;;;;;;;11.90;5.90;;;;;;;2.41;60.50;99319.75;229999;1193;139137;-74
2023/02/03 07:39:12;;;;;;;12.30;6.10;;;;;;;2.45;60.35;99317.20;228842;1194;138935;-73
2023/02/03 07:44:16;;;;;;;14.90;5.60;;;;;;;2.52;60.10;99309.48;230123;1197;138842;-75
2023/02/03 07:49:19;;;;;;;10.60;5.70;;;;;;;2.57;59.67;99297.43;229300;1198;138621;-72
2023/02/03 07:54:23;;;;;;;8.20;5.00;;;;;;;2.60;59.11;99284.06;231818;1194;139367;-71
2023/02/03 07:59:26;;;;;;;9.20;5.20;;;;;;;2.66;58.94;99276.22;230118;1193;139317;-71
2023/02/03 08:04:30;;;;;;;11.30;5.30;;;;;;;2.66;58.84;99265.18;229724;1198;139184;-71
2023/02/03 08:09:33;;;;;;;9.90;5.00;;;;;;;2.68;58.93;99252.86;228551;1199;139081;-71
2023/02/03 08:14:37;;;;;;;7.30;4.40;;;;;;;2.76;58.05;99246.52;229527;1198;138606;-71
2023/02/03 08:19:40;;;;;;;6.30;4.40;;;;;;;2.78;58.07;99235.41;229893;1196;138495;-70
2023/02/03 08:24:45;;;;;;;9.70;4.60;;;;;;;2.82;57.86;99230.04;233313;1196;138397;-71
2023/02/03 08:29:49;;;;;;;6.70;3.60;;;;;;;2.87;57.71;99218.70;235224;1196;138170;-71
2023/02/03 08:34:53;;;;;;;8.40;3.80;;;;;;;2.88;57.00;99214.30;233927;1196;140814;-70
2023/02/03 08:39:59;;;;;;;6.90;3.30;;;;;;;2.94;56.36;99205.71;232983;1196;138443;-71
2023/02/03 08:45:04;;;;;;;7.10;3.60;;;;;;;3.00;55.71;99190.27;230594;1198;138988;-71
2023/02/03 08:50:12;;;;;;;7.50;3.60;;;;;;;3.13;55.46;99176.42;231022;1196;139470;-71
2023/02/03 08:55:15;;;;;;;6.00;3.20;;;;;;;3.16;55.53;99163.70;230817;1193;139028;-72
2023/02/03 09:00:19;;;;;;;5.50;3.20;;;;;;;3.13;54.70;99158.88;235405;1193;138368;-70
2023/02/03 09:05:23;;;;;;;11.20;3.10;;;;;;;3.15;54.96;99151.64;235439;1193;138815;-70
2023/02/03 09:10:26;;;;;;;7.50;3.30;;;;;;;3.23;54.34;99143.50;233356;1193;138922;-70
2023/02/03 09:15:30;;;;;;;6.20;3.20;;;;;;;3.35;53.79;99137.34;235163;1193;138638;-70
2023/02/03 09:20:33;;;;;;;5.40;3.20;;;;;;;3.47;53.23;99130.30;229645;1193;139076;-71
2023/02/03 09:25:37;;;;;;;7.00;3.30;;;;;;;3.57;52.57;99132.60;230779;1193;139124;-70
2023/02/03 09:30:41;;;;;;;6.90;3.40;;;;;;;3.63;52.61;99127.69;229499;1196;139155;-71
2023/02/03 09:35:51;;;;;;;6.60;3.50;;;;;;;3.74;52.18;99126.80;231367;1193;138879;-71
2023/02/03 09:41:03;;;;;;;5.50;3.30;;;;;;;3.83;51.85;99118.61;229203;1196;138573;-71
2023/02/03 09:46:22;;;;;;;6.00;3.40;;;;;;;3.86;51.27;99105.89;233900;1196;138360;-71
2023/02/03 09:51:31;;;;;;;7.20;3.50;;;;;;;3.89;50.58;99098.07;230268;1196;139106;-72
2023/02/03 09:56:36;;;;;;;8.40;3.50;;;;;;;3.89;49.82;99086.66;229841;1193;139571;-74
2023/02/03 10:02:14;;;;;;;9.10;3.40;;;;;;;3.89;49.05;99079.65;230783;1197;138722;-72
2023/02/03 10:07:34;;;;;;;11.70;3.90;;;;;;;3.88;50.34;99072.45;231832;1196;141108;-72
2023/02/03 10:12:53;;;;;;;7.50;3.80;;;;;;;3.81;51.76;99069.19;232113;1193;138597;-70
2023/02/03 10:18:01;;;;;;;7.00;3.50;;;;;;;3.71;53.35;99055.69;232147;1193;138430;-72
2023/02/03 10:23:18;;;;;;;9.20;4.20;;;;;;;3.59;53.97;99034.15;232460;1196;138310;-71
2023/02/03 10:28:28;;;;;;;7.70;3.90;;;;;;;3.56;54.54;99015.13;230794;1195;138231;-71
2023/02/03 10:33:33;;;;;;;5.70;3.60;;;;;;;3.61;54.93;98993.75;230277;1196;138573;-71
2023/02/03 10:38:45;;;;;;;6.60;3.60;;;;;;;3.61;55.57;98972.16;229560;1198;138324;-70
2023/02/03 10:43:52;;;;;;;7.20;4.10;;;;;;;3.61;56.06;98952.69;231055;1193;138857;-70
2023/02/03 10:48:56;;;;;;;7.20;3.70;;;;;;;3.63;56.23;98936.32;230879;1193;138312;-70
2023/02/03 10:54:00;;;;;;;8.10;4.10;;;;;;;3.63;56.68;98924.73;230276;1197;139302;-71
2023/02/03 10:59:05;;;;;;;4.80;2.80;;;;;;;3.65;57.68;98900.98;229428;1193;138632;-70
2023/02/03 11:04:32;;;;;;;5.70;3.10;;;;;;;3.57;58.36;98881.60;229081;1199;138563;-70
2023/02/03 11:09:38;;;;;;;13.70;4.00;;;;;;;3.43;59.58;98862.84;228848;1199;138577;-70
2023/02/03 11:14:50;;;;;;;9.00;3.10;;;;;;;3.36;60.77;98847.14;230904;1196;138919;-71
2023/02/03 11:20:14;;;;;;;5.60;2.70;;;;;;;3.35;61.13;98824.20;229935;1192;139615;-72
2023/02/03 11:25:25;;;;;;;5.60;2.80;;;;;;;3.37;61.81;98811.69;230286;1196;138736;-71
2023/02/03 11:30:28;;;;;;;8.20;2.80;;;;;;;3.42;62.62;98792.75;230198;1193;138499;-71
2023/02/03 11:35:36;;;;;;;14.40;3.90;;;;;;;3.32;63.24;98770.98;230927;1198;138537;-74
2023/02/03 11:40:41;;;;;;;10.00;3.80;;;;;;;3.23;63.28;98759.42;232140;1193;139041;-75
2023/02/03 11:45:49;;;;;;;8.50;3.90;;;;;;;3.17;63.51;98735.45;229891;1196;138544;-71
2023/02/03 11:51:23;;;;;;;11.50;3.70;;;;;;;3.05;64.10;98723.09;232885;1193;138392;-71
2023/02/03 11:56:33;;;;;;;11.00;3.90;;;;;;;2.94;64.68;98700.87;230198;1196;138904;-71
2023/02/03 12:01:48;;;;;;;8.80;3.80;;;;;;;2.82;65.29;98681.71;230431;1193;139287;-72
2023/02/03 12:07:23;;;;;;;7.60;4.10;;;;;;;2.81;65.78;98658.41;230931;1193;139049;-71
2023/02/03 12:12:53;;;;;;;12.20;4.30;;;;;;;2.88;66.01;98636.11;230930;1196;138692;-71
2023/02/03 12:18:08;;;;;;;10.70;4.50;;;;;;;2.84;66.63;98616.98;233269;1193;138309;-70
2023/02/03 12:23:23;;;;;;;9.40;4.30;;;;;;;2.77;66.97;98602.70;231826;1193;138892;-72
2023/02/03 12:28:32;;;;;;;8.40;4.30;;;;;;;2.78;67.42;98579.58;234430;1194;138401;-69
2023/02/03 12:33:55;;;;;;;7.90;4.50;;;;;;;2.75;67.52;98560.40;231203;1196;138236;-71
2023/02/03 12:39:05;;;;;;;9.50;4.80;;;;;;;2.79;67.89;98547.83;231413;1193;138849;-71
2023/02/03 12:44:24;;;;;;;7.30;4.30;;;;;;;2.76;68.25;98530.75;230181;1196;138473;-72
2023/02/03 12:49:37;;;;;;;7.00;4.20;;;;;;;2.78;68.53;98512.65;232300;1192;139858;-71
2023/02/03 12:54:56;;;;;;;8.50;4.40;;;;;;;2.89;68.60;98495.22;234905;1193;138968;-70
2023/02/03 13:00:18;;;;;;;8.40;4.70;;;;;;;2.92;68.80;98478.48;233277;1193;138708;-71
2023/02/03 13:05:29;;;;;;;9.00;4.90;;;;;;;2.90;68.95;98459.10;235387;1194;138751;-71
2023/02/03 13:10:43;;;;;;;8.70;4.70;;;;;;;2.93;69.08;98445.67;233999;1193;139073;-73
2023/02/03 13:15:51;;;;;;;8.10;5.00;;;;;;;2.94;69.34;98425.30;230501;1193;138728;-71
2023/02/03 13:20:55;;;;;;;7.60;4.90;;;;;;;3.02;69.49;98411.82;231232;1195;138704;-71
2023/02/03 13:26:11;;;;;;;9.60;5.90;;;;;;;3.00;69.72;98397.34;229073;1198;139274;-71
2023/02/03 13:31:34;;;;;;;11.50;6.70;;;;;;;3.00;69.78;98385.60;231331;1197;138746;-71
2023/02/03 13:36:50;;;;;;;8.80;5.10;;;;;;;2.97;70.26;98365.94;230233;1193;138577;-70
2023/02/03 13:42:06;;;;;;;6.80;4.80;;;;;;;2.96;70.43;98349.70;229636;1193;138944;-70
2023/02/03 13:47:21;;;;;;;6.40;4.00;;;;;;;3.02;70.60;98331.93;233772;1196;139275;-71
2023/02/03 13:52:37;;;;;;;8.10;4.80;;;;;;;3.19;70.99;98315.94;228725;1199;139197;-70
2023/02/03 13:57:40;;;;;;;9.60;4.40;;;;;;;3.36;70.85;98299.42;230467;1196;138690;-70
2023/02/03 14:02:52;;;;;;;6.10;4.00;;;;;;;3.45;70.44;98286.19;229369;1197;138368;-71
2023/02/03 14:07:56;;;;;;;5.90;4.00;;;;;;;3.49;70.67;98270.40;231367;1197;138568;-71
2023/02/03 14:13:01;;;;;;;5.70;3.10;;;;;;;3.54;70.41;98254.39;231266;1193;138398;-71
2023/02/03 14:18:32;;;;;;;5.80;3.00;;;;;;;3.50;70.58;98236.66;229429;1193;138286;-70
2023/02/03 14:23:47;;;;;;;4.80;3.10;;;;;;;3.46;70.35;98216.38;231962;1193;138494;-70
2023/02/03 14:28:50;;;;;;;8.00;3.70;;;;;;;3.42;70.83;98204.27;229620;1198;138618;-71
2023/02/03 14:34:01;;;;;;;;;;;;;;;3.44;70.91;98188.58;228892;1193;139198;-71
2023/02/03 14:39:59;;;;;;;4.30;3.00;;;;;;;3.45;70.91;98179.23;229732;1193;126382;-69
2023/02/03 14:45:15;;;;;;;5.10;3.40;;;;;;;3.53;70.84;98164.45;231898;1194;139238;-70
2023/02/03 14:50:18;;;;;;;;;;;;;;;3.65;70.65;98149.19;230309;1193;138868;-69
2023/02/03 14:55:36;;;;;;;4.80;3.60;;;;;;;3.70;70.26;98136.65;230404;1198;195373;-70
2023/02/03 15:00:40;;;;;;;6.00;4.10;;;;;;;3.58;70.42;98126.89;229571;1193;138663;-68
2023/02/03 15:05:48;;;;;;;6.40;4.40;;;;;;;3.57;70.67;98118.67;228728;1197;138172;-69
2023/02/03 15:10:52;;;;;;;6.40;4.20;;;;;;;3.64;70.66;98113.09;231620;1196;139283;-70
2023/02/03 15:15:59;;;;;;;4.80;3.70;;;;;;;3.60;70.33;98110.16;230211;1195;138395;-71
2023/02/03 15:21:03;;;;;;;5.10;3.70;;;;;;;3.54;70.79;98110.73;231152;1193;138595;-71
2023/02/03 15:26:16;;;;;;;5.00;3.30;;;;;;;3.53;70.95;98104.16;228900;1197;140016;-70
2023/02/03 15:31:19;;;;;;;5.80;3.20;;;;;;;3.59;71.09;98103.52;231140;1195;138867;-70
2023/02/03 15:36:32;;;;;;;4.40;2.90;;;;;;;3.69;70.75;98103.05;229542;1198;138825;-70
2023/02/03 15:41:36;;;;;;;4.50;3.20;;;;;;;3.64;70.62;98111.88;229841;1197;138458;-72
2023/02/03 15:46:47;;;;;;;4.10;3.20;;;;;;;3.56;71.16;98107.18;230370;1197;138511;-72
2023/02/03 15:52:11;;;;;;;5.60;3.60;;;;;;;3.44;71.59;98092.70;230104;1193;138883;-71
2023/02/03 15:57:22;;;;;;;5.90;3.50;;;;;;;3.32;71.78;98090.29;234114;1193;138941;-72
2023/02/03 16:02:38;;;;;;;5.50;3.40;;;;;;;3.35;72.38;98099.25;231695;1194;140901;-72
2023/02/03 16:07:42;;;;;;;5.40;3.40;;;;;;;3.38;72.62;98096.13;230082;1193;139371;-68
2023/02/03 16:12:45;;;;;;;5.70;3.70;;;;;;;3.35;72.91;98085.95;229739;1194;138286;-73
2023/02/03 16:17:56;;;;;;;5.20;3.10;;;;;;;3.35;73.05;98087.52;235034;1193;138439;-73
2023/02/03 16:23:01;;;;;;;5.50;3.40;;;;;;;3.37;73.39;98090.22;235308;1193;138686;-70
2023/02/03 16:55:03;;;;;;;8.20;3.90;;;;;;;3.93;74.23;98083.92;230593;1196;138936;-73
2023/02/03 17:00:08;;;;;;;6.50;4.00;;;;;;;4.00;74.02;98084.27;231879;1195;139017;-72
2023/02/03 17:05:11;;;;;;;9.50;4.50;;;;;;;4.06;74.00;98080.11;231190;1194;138729;-73
2023/02/03 17:10:15;;;;;;;8.10;4.60;;;;;;;4.10;73.89;98083.28;230154;1196;138661;-70
2023/02/03 17:15:19;;;;;;;9.00;4.60;;;;;;;4.17;73.79;98084.45;231145;1194;139107;-71
2023/02/03 17:20:23;;;;;;;9.80;4.60;;;;;;;4.23;73.71;98082.56;231698;1194;139047;-72
2023/02/03 17:25:26;;;;;;;10.00;4.40;;;;;;;4.32;73.80;98086.35;229673;1197;139218;-71
2023/02/03 17:30:34;;;;;;;7.50;4.60;;;;;;;4.30;73.91;98092.55;231695;1193;138852;-73
2023/02/03 17:35:42;;;;;;;11.40;4.90;;;;;;;4.32;73.85;98106.88;231627;1193;138647;-72
2023/02/03 17:40:45;;;;;;;9.10;4.50;;;;;;;4.40;74.01;98116.96;234823;1193;138781;-71
2023/02/03 17:46:09;;;;;;;10.10;4.90;;;;;;;4.48;74.24;98122.36;233557;1193;139050;-71
2023/02/03 17:51:29;;;;;;;10.00;5.00;;;;;;;4.61;74.41;98141.19;230204;1198;139503;-72
2023/02/03 17:56:50;;;;;;;9.60;5.40;;;;;;;4.63;74.07;98145.83;230229;1193;138465;-71
2023/02/03 18:01:54;;;;;;;9.60;4.70;;;;;;;4.62;74.07;98156.40;229883;1198;138330;-71
2023/02/03 18:06:57;;;;;;;8.60;4.70;;;;;;;4.62;74.23;98164.65;233128;1195;139357;-71
2023/02/03 18:12:00;;;;;;;10.20;4.70;;;;;;;4.76;74.06;98168.53;230554;1198;139072;-72
2023/02/03 18:17:04;;;;;;;10.60;4.20;;;;;;;4.84;74.12;98178.98;229157;1193;138668;-72
2023/02/03 18:22:08;;;;;;;12.20;5.50;;;;;;;4.88;73.73;98177.35;231166;1198;138939;-72
2023/02/03 18:27:15;;;;;;;12.40;5.20;;;;;;;4.88;73.44;98183.68;230500;1198;138618;-72
2023/02/03 18:32:19;;;;;;;10.10;5.10;;;;;;;4.80;73.61;98190.07;230145;1198;139408;-73
2023/02/03 18:37:22;;;;;;;8.40;4.40;;;;;;;4.76;73.78;98192.23;231688;1197;138899;-73
2023/02/03 18:42:26;;;;;;;10.70;5.20;;;;;;;4.74;73.74;98191.98;230034;1198;139407;-73
2023/02/03 18:47:30;;;;;;;10.50;4.70;;;;;;;4.82;73.93;98185.40;232607;1193;139222;-73
2023/02/03 18:52:34;;;;;;;13.00;5.00;;;;;;;4.91;73.52;98189.85;233376;1195;138743;-72
2023/02/03 18:57:38;;;;;;;10.90;5.80;;;;;;;5.04;73.42;98200.26;229767;1193;138824;-68
2023/02/03 19:02:42;;;;;;;11.60;5.70;;;;;;;5.12;73.26;98208.98;233421;1193;139437;-71
2023/02/03 19:07:45;;;;;;;12.00;5.60;;;;;;;5.08;72.94;98213.38;229661;1194;138739;-71
2023/02/03 19:12:49;;;;;;;11.70;5.30;;;;;;;4.95;73.01;98212.84;234487;1193;138606;-70
2023/02/03 19:17:52;;;;;;;14.60;6.00;;;;;;;4.95;73.20;98210.58;234741;1193;140158;-70
2023/02/03 19:22:56;;;;;;;13.20;5.60;;;;;;;5.01;73.32;98208.15;235551;1192;140094;-70
2023/02/03 19:28:00;;;;;;;13.30;5.60;;;;;;;5.13;72.94;98210.48;231944;1197;138792;-73
2023/02/03 19:33:04;;;;;;;16.70;6.20;;;;;;;5.17;72.54;98217.13;230702;1193;138560;-71
2023/02/03 19:38:07;;;;;;;15.80;6.40;;;;;;;5.08;72.52;98216.91;230188;1197;138609;-71
2023/02/03 19:43:11;;;;;;;14.10;6.40;;;;;;;5.06;72.65;98220.38;230938;1198;139412;-72
2023/02/03 19:48:15;;;;;;;11.60;5.50;;;;;;;4.97;72.78;98219.59;230199;1198;138389;-74
2023/02/03 19:53:18;;;;;;;14.00;5.20;;;;;;;4.96;73.06;98224.02;232193;1198;139681;-74
2023/02/03 19:58:22;;;;;;;14.20;5.60;;;;;;;5.09;73.50;98232.83;230435;1193;139849;-70
2023/02/03 20:03:26;;;;;;;13.10;5.50;;;;;;;5.16;73.17;98237.75;231647;1193;138546;-71
2023/02/03 20:08:30;;;;;;;12.30;5.10;;;;;;;5.19;73.04;98242.68;230871;1196;139233;-71
2023/02/03 20:13:34;;;;;;;11.00;5.50;;;;;;;5.21;73.62;98239.79;229211;1199;138612;-73
2023/02/03 20:18:37;;;;;;;11.60;4.90;;;;;;;5.35;73.02;98241.13;230318;1195;138225;-73
2023/02/03 20:23:41;;;;;;;11.20;5.20;;;;;;;5.38;74.34;98232.55;234528;1193;139998;-71
2023/02/03 20:28:46;;;;;;;13.20;4.70;;;;;;;5.66;72.74;98225.75;231716;1198;139695;-72
2023/02/03 20:33:51;;;;;;;9.90;5.00;;;;;;;5.54;72.10;98220.93;234539;1194;140465;-71
2023/02/03 20:38:54;;;;;;;11.90;4.90;;;;;;;5.45;71.85;98215.63;231730;1196;138816;-73
2023/02/03 20:43:58;;;;;;;9.50;4.30;;;;;;;5.36;71.46;98209.42;230073;1196;138446;-71
2023/02/03 20:49:01;;;;;;;10.30;4.70;;;;;;;5.25;71.67;98209.86;231015;1195;138249;-71
2023/02/03 20:54:15;;;;;;;9.00;5.00;;;;;;;5.05;72.04;98205.29;230566;1198;138454;-71
2023/02/03 20:59:19;;;;;;;7.70;4.20;;;;;;;4.95;72.37;98208.44;230863;1198;138475;-69
2023/02/03 21:09:44;;;;;;;10.20;4.00;;;;;;;4.93;72.18;98211.53;229750;1199;139574;-71
2023/02/03 21:14:48;;;;;;;6.40;3.30;;;;;;;4.85;72.49;98211.59;230629;1193;138798;-71
2023/02/03 21:19:53;;;;;;;7.50;3.30;;;;;;;4.79;72.34;98215.46;233465;1198;138751;-72
2023/02/03 21:24:59;;;;;;;12.20;3.30;;;;;;;4.72;72.37;98211.94;229619;1198;139537;-72
2023/02/03 21:30:23;;;;;;;6.70;3.30;;;;;;;4.71;72.60;98207.76;230812;1198;139839;-70
2023/02/03 21:35:38;;;;;;;8.00;3.60;;;;;;;4.68;72.53;98214.06;231166;1198;139114;-70
2023/02/03 21:40:42;;;;;;;6.60;3.40;;;;;;;4.64;72.57;98222.91;229313;1198;138468;-72
2023/02/03 21:45:45;;;;;;;8.00;4.10;;;;;;;4.62;72.58;98225.45;232099;1193;208365;-71
2023/02/03 21:50:49;;;;;;;6.30;3.90;;;;;;;4.56;72.76;98225.04;231393;1194;139094;-71
2023/02/03 21:55:53;;;;;;;8.70;4.00;;;;;;;4.54;73.12;98227.09;230079;1198;139446;-71
2023/02/03 22:00:59;;;;;;;6.50;3.80;;;;;;;4.62;73.09;98229.84;232219;1193;139255;-72
2023/02/03 22:06:15;;;;;;;9.10;4.70;;;;;;;4.67;72.90;98226.61;230834;1196;138638;-71
2023/02/03 22:11:21;;;;;;;10.80;4.90;;;;;;;4.67;72.98;98227.14;232563;1198;139179;-71
2023/02/03 22:16:27;;;;;;;10.80;5.30;;;;;;;4.62;73.00;98224.38;233086;1197;138444;-70
2023/02/03 22:21:31;;;;;;;11.60;4.60;;;;;;;4.58;73.13;98218.27;230105;1199;138515;-72
2023/02/03 22:26:34;;;;;;;10.60;4.70;;;;;;;4.62;73.33;98217.02;228945;1199;139604;-72
2023/02/03 22:31:39;;;;;;;13.60;4.90;;;;;;;4.69;72.95;98224.20;228874;1199;139132;-69
2023/02/03 22:36:43;;;;;;;12.60;5.50;;;;;;;4.72;73.34;98229.64;232981;1198;138976;-70
2023/02/03 22:41:46;;;;;;;9.80;5.30;;;;;;;4.71;72.93;98221.81;230875;1193;138998;-71
2023/02/03 22:46:49;;;;;;;12.10;5.40;;;;;;;4.71;73.26;98217.60;228961;1198;138626;-69
2023/02/03 22:51:52;;;;;;;10.90;5.10;;;;;;;4.71;73.17;98217.23;230250;1199;139613;-72
2023/02/03 22:56:56;;;;;;;9.00;4.10;;;;;;;4.75;73.12;98220.91;229486;1199;139030;-71
2023/02/03 23:02:00;;;;;;;12.30;5.40;;;;;;;4.75;72.80;98225.29;231230;1198;138568;-73
2023/02/03 23:07:03;;;;;;;11.00;5.10;;;;;;;4.70;72.81;98225.77;233152;1196;138675;-71
2023/02/03 23:12:07;;;;;;;9.30;4.30;;;;;;;4.61;72.96;98225.33;234144;1197;138959;-72
2023/02/03 23:17:10;;;;;;;7.90;4.10;;;;;;;4.54;72.97;98220.43;234248;1196;138598;-73
2023/02/03 23:22:14;;;;;;;11.90;5.20;;;;;;;4.52;72.97;98218.23;230751;1197;139325;-72
2023/02/03 23:27:18;;;;;;;9.40;4.40;;;;;;;4.51;72.86;98215.98;229617;1194;139470;-72
2023/02/03 23:32:21;;;;;;;11.50;4.90;;;;;;;4.46;72.95;98212.20;230213;1199;138486;-72
2023/02/03 23:37:24;;;;;;;12.30;4.70;;;;;;;4.38;73.24;98206.10;229486;1196;138764;-72
2023/02/03 23:42:28;;;;;;;10.80;5.10;;;;;;;4.28;73.09;98197.31;229374;1199;139866;-71
2023/02/03 23:47:31;;;;;;;9.60;5.00;;;;;;;4.26;73.81;98196.71;229435;1198;139149;-72
2023/02/03 23:52:35;;;;;;;15.10;6.10;;;;;;;4.28;73.98;98196.63;229531;1207;138910;-71
2023/02/03 23:57:41;;;;;;;15.40;6.80;;;;;;;4.31;73.97;98189.27;230623;1193;138803;-72
